Time;durP1;ratioP1;P1;durP2;ratioP2;P2;SDS_P1;SDS_P2;PMS_P1;PMS_P2;Temp;Humidity;BMP_temperature;BMP_pressure;BME280_temperature;BME280_humidity;BME280_pressure;Samples;Min_cycle;Max_cycle;Signal;HPM_P1;HPM_P2
2022/10/05 00:02:00;;;;;;;5.23;3.43;;;;;;;;;;5091562;28;20460;-74
2022/10/05 00:04:28;;;;;;;4.90;4.40;;;;;;;;;;5092420;28;20812;-74
2022/10/05 00:06:57;;;;;;;3.80;2.90;;;;;;;;;;5080414;28;20479;-74
2022/10/05 00:09:24;;;;;;;5.30;3.80;;;;;;;;;;5092044;28;20453;-74
2022/10/05 00:11:52;;;;;;;4.63;3.20;;;;;;;;;;5091564;28;20488;-72
2022/10/05 00:14:22;;;;;;;3.50;2.90;;;;;;;;;;5092078;28;20448;-74
2022/10/05 00:16:50;;;;;;;4.17;3.33;;;;;;;;;;5092316;28;20464;-74
2022/10/05 00:19:21;;;;;;;3.47;2.70;;;;;;;;;;5091804;28;20460;-74
2022/10/05 00:21:48;;;;;;;4.13;3.20;;;;;;;;;;5091941;28;20444;-74
2022/10/05 00:24:18;;;;;;;4.00;3.23;;;;;;;;;;5091066;28;20470;-74
2022/10/05 00:26:45;;;;;;;5.03;3.20;;;;;;;;;;5091534;28;20936;-74
2022/10/05 00:29:17;;;;;;;5.03;2.87;;;;;;;;;;5090524;28;20445;-74
2022/10/05 00:31:46;;;;;;;4.93;3.50;;;;;;;;;;5091032;28;20447;-74
2022/10/05 00:34:13;;;;;;;4.10;3.30;;;;;;;;;;5086375;28;20458;-74
2022/10/05 00:36:40;;;;;;;3.77;3.07;;;;;;;;;;5090852;28;21014;-74
2022/10/05 00:39:07;;;;;;;3.37;2.67;;;;;;;;;;5090801;28;20449;-74
2022/10/05 00:41:41;;;;;;;3.20;2.53;;;;;;;;;;5090608;28;20454;-75
2022/10/05 00:44:18;;;;;;;4.20;2.87;;;;;;;;;;5090703;28;20452;-74
2022/10/05 00:46:52;;;;;;;3.90;3.10;;;;;;;;;;5090969;28;20799;-74
2022/10/05 00:49:22;;;;;;;3.90;2.77;;;;;;;;;;5090989;28;20454;-74
2022/10/05 00:51:53;;;;;;;4.37;3.00;;;;;;;;;;5091247;28;20450;-74
2022/10/05 00:54:23;;;;;;;3.17;2.50;;;;;;;;;;5083872;28;20454;-74
2022/10/05 00:56:56;;;;;;;3.23;2.73;;;;;;;;;;5091578;28;20479;-74
2022/10/05 00:59:29;;;;;;;2.97;2.40;;;;;;;;;;5090989;28;20438;-74
2022/10/05 01:02:01;;;;;;;5.03;3.10;;;;;;;;;;5090008;28;20812;-74
2022/10/05 01:04:34;;;;;;;4.07;3.10;;;;;;;;;;5091539;28;20451;-74
2022/10/05 01:07:09;;;;;;;5.67;2.90;;;;;;;;;;5090948;28;20449;-74
2022/10/05 01:09:41;;;;;;;4.43;3.57;;;;;;;;;;5091033;28;20441;-74
2022/10/05 01:12:10;;;;;;;3.13;2.83;;;;;;;;;;5090658;28;20480;-74
2022/10/05 01:14:42;;;;;;;4.03;2.70;;;;;;;;;;5091542;28;20778;-74
2022/10/05 01:17:15;;;;;;;2.87;2.63;;;;;;;;;;5090972;28;20480;-74
2022/10/05 01:19:57;;;;;;;5.90;3.43;;;;;;;;;;5091721;28;20439;-75
2022/10/05 01:22:30;;;;;;;3.83;2.63;;;;;;;;;;5092592;28;20459;-74
2022/10/05 01:25:07;;;;;;;7.63;3.70;;;;;;;;;;5101117;28;20440;-74
2022/10/05 01:27:45;;;;;;;5.13;3.80;;;;;;;;;;5101155;28;20442;-75
2022/10/05 01:30:14;;;;;;;3.43;2.70;;;;;;;;;;5100010;28;20657;-75
2022/10/05 01:32:44;;;;;;;3.60;3.00;;;;;;;;;;5099406;28;20456;-75
2022/10/05 01:35:17;;;;;;;5.00;3.30;;;;;;;;;;5098239;28;20443;-74
2022/10/05 01:37:51;;;;;;;3.07;2.77;;;;;;;;;;5093864;28;20477;-74
2022/10/05 01:40:23;;;;;;;4.93;3.00;;;;;;;;;;5090151;28;20446;-74
2022/10/05 01:42:57;;;;;;;4.97;2.70;;;;;;;;;;5090831;28;20541;-74
2022/10/05 01:45:28;;;;;;;4.30;2.60;;;;;;;;;;5090581;28;20445;-74
2022/10/05 01:47:58;;;;;;;4.47;3.30;;;;;;;;;;5089577;28;20468;-73
2022/10/05 01:50:28;;;;;;;4.17;3.10;;;;;;;;;;5087669;28;20449;-74
2022/10/05 01:52:59;;;;;;;4.70;3.40;;;;;;;;;;5089645;28;20450;-74
2022/10/05 01:55:30;;;;;;;4.40;3.90;;;;;;;;;;5090922;28;20442;-74
2022/10/05 01:58:04;;;;;;;4.67;2.80;;;;;;;;;;5093987;28;20471;-74
2022/10/05 02:00:33;;;;;;;3.20;2.23;;;;;;;;;;5094949;28;20448;-74
2022/10/05 02:03:02;;;;;;;4.80;3.27;;;;;;;;;;5093788;28;20448;-74
2022/10/05 02:05:32;;;;;;;4.67;3.60;;;;;;;;;;5094197;28;20449;-74
2022/10/05 02:08:01;;;;;;;4.90;2.93;;;;;;;;;;5093380;28;20489;-74
2022/10/05 02:10:30;;;;;;;3.60;2.93;;;;;;;;;;5094391;28;20465;-74
2022/10/05 02:13:01;;;;;;;4.33;2.93;;;;;;;;;;5093665;28;20484;-74
2022/10/05 02:15:33;;;;;;;4.70;3.20;;;;;;;;;;5094714;28;20449;-74
2022/10/05 02:18:04;;;;;;;4.23;3.00;;;;;;;;;;5093036;28;20991;-74
2022/10/05 02:20:33;;;;;;;5.03;3.40;;;;;;;;;;5094664;28;20539;-74
2022/10/05 02:23:03;;;;;;;3.40;3.10;;;;;;;;;;5093004;28;20448;-74
2022/10/05 02:25:31;;;;;;;4.07;3.20;;;;;;;;;;5093881;28;20439;-74
2022/10/05 02:28:01;;;;;;;6.00;3.10;;;;;;;;;;5093064;28;20797;-73
2022/10/05 02:30:32;;;;;;;5.43;3.23;;;;;;;;;;5093785;28;20785;-74
2022/10/05 02:33:00;;;;;;;3.33;2.33;;;;;;;;;;5091834;28;20447;-73
2022/10/05 02:35:27;;;;;;;4.27;2.70;;;;;;;;;;5092310;28;20457;-74
2022/10/05 02:38:00;;;;;;;8.20;3.07;;;;;;;;;;5092184;28;20477;-74
2022/10/05 02:40:33;;;;;;;4.43;3.27;;;;;;;;;;5092557;28;20452;-74
2022/10/05 02:43:03;;;;;;;3.90;3.30;;;;;;;;;;5092624;28;20447;-74
2022/10/05 02:45:40;;;;;;;4.57;2.83;;;;;;;;;;5093614;28;20791;-73
2022/10/05 02:48:11;;;;;;;2.83;2.53;;;;;;;;;;5091972;28;20541;-73
2022/10/05 02:50:44;;;;;;;3.13;2.70;;;;;;;;;;5093393;28;20452;-74
2022/10/05 02:53:18;;;;;;;4.93;3.73;;;;;;;;;;5092698;28;20669;-74
2022/10/05 02:55:48;;;;;;;4.00;3.00;;;;;;;;;;5093954;28;20452;-74
2022/10/05 02:58:17;;;;;;;3.20;2.83;;;;;;;;;;5091475;28;20476;-73
2022/10/05 03:00:48;;;;;;;5.73;3.60;;;;;;;;;;5090258;28;20445;-74
2022/10/05 03:03:19;;;;;;;5.27;3.60;;;;;;;;;;5093220;28;20449;-73
2022/10/05 03:05:48;;;;;;;5.00;3.30;;;;;;;;;;5093883;28;20444;-73
2022/10/05 03:08:17;;;;;;;4.77;3.37;;;;;;;;;;5093913;28;20452;-73
2022/10/05 03:10:49;;;;;;;4.60;3.60;;;;;;;;;;5093264;28;20452;-72
2022/10/05 03:13:22;;;;;;;5.70;3.23;;;;;;;;;;5092810;28;20801;-73
2022/10/05 03:16:01;;;;;;;4.70;3.20;;;;;;;;;;5093244;28;20445;-74
2022/10/05 03:18:38;;;;;;;4.23;3.50;;;;;;;;;;5092463;28;20479;-74
2022/10/05 03:21:11;;;;;;;6.03;3.47;;;;;;;;;;5092183;28;20449;-72
2022/10/05 03:23:44;;;;;;;4.87;3.20;;;;;;;;;;5093075;28;20456;-73
2022/10/05 03:26:16;;;;;;;7.77;3.87;;;;;;;;;;5092014;28;20444;-73
2022/10/05 03:28:48;;;;;;;5.17;3.47;;;;;;;;;;5092102;28;20448;-73
2022/10/05 03:31:23;;;;;;;4.73;4.17;;;;;;;;;;5091608;28;20441;-73
2022/10/05 03:33:53;;;;;;;4.70;2.83;;;;;;;;;;5092497;28;20444;-77
2022/10/05 03:36:23;;;;;;;4.87;3.90;;;;;;;;;;5092630;28;20443;-75
2022/10/05 03:38:54;;;;;;;6.10;4.50;;;;;;;;;;5091976;28;20449;-76
2022/10/05 03:41:25;;;;;;;5.40;4.43;;;;;;;;;;5092079;28;20796;-79
2022/10/05 03:44:05;;;;;;;5.93;3.80;;;;;;;;;;5089970;28;20524;-73
2022/10/05 03:46:39;;;;;;;4.70;3.33;;;;;;;;;;5092003;28;20528;-73
2022/10/05 03:49:10;;;;;;;6.23;3.83;;;;;;;;;;5091132;28;20459;-73
2022/10/05 03:51:38;;;;;;;3.73;3.40;;;;;;;;;;5092499;28;20449;-75
2022/10/05 03:54:09;;;;;;;7.73;5.10;;;;;;;;;;5092087;28;20444;-76
2022/10/05 03:56:37;;;;;;;8.00;4.40;;;;;;;;;;5092392;28;20448;-74
2022/10/05 03:59:09;;;;;;;4.60;3.80;;;;;;;;;;5091585;28;20444;-80
2022/10/05 04:01:40;;;;;;;6.23;4.33;;;;;;;;;;5091883;28;20498;-75
2022/10/05 04:04:12;;;;;;;7.07;3.67;;;;;;;;;;5091764;28;20452;-75
2022/10/05 04:06:42;;;;;;;5.43;3.70;;;;;;;;;;5078779;28;20460;-75
2022/10/05 04:09:12;;;;;;;7.10;3.53;;;;;;;;;;5091848;28;20459;-75
2022/10/05 04:11:41;;;;;;;5.37;4.37;;;;;;;;;;5092422;28;20970;-75
2022/10/05 04:14:12;;;;;;;4.03;3.60;;;;;;;;;;5092173;28;20453;-75
2022/10/05 04:16:42;;;;;;;5.73;3.30;;;;;;;;;;5091880;28;20444;-75
2022/10/05 04:19:13;;;;;;;5.10;4.03;;;;;;;;;;5091846;28;20449;-74
2022/10/05 04:21:45;;;;;;;5.37;3.80;;;;;;;;;;5092329;28;20441;-75
2022/10/05 04:24:15;;;;;;;7.23;4.40;;;;;;;;;;5091629;28;20460;-75
2022/10/05 04:26:46;;;;;;;4.20;3.80;;;;;;;;;;5092062;28;20462;-75
2022/10/05 04:29:17;;;;;;;5.43;4.10;;;;;;;;;;5090625;28;20463;-75
2022/10/05 04:31:50;;;;;;;5.80;3.53;;;;;;;;;;5091644;28;20443;-75
2022/10/05 04:34:27;;;;;;;6.40;4.00;;;;;;;;;;5091340;28;20452;-75
2022/10/05 04:36:57;;;;;;;5.23;4.50;;;;;;;;;;5091149;28;20469;-73
2022/10/05 04:39:27;;;;;;;5.80;4.20;;;;;;;;;;5091499;28;20522;-75
2022/10/05 04:42:00;;;;;;;6.23;4.33;;;;;;;;;;5091308;28;20464;-74
2022/10/05 04:44:44;;;;;;;6.83;4.43;;;;;;;;;;5091977;28;20445;-75
2022/10/05 04:47:22;;;;;;;8.50;4.30;;;;;;;;;;5090967;28;20456;-76
2022/10/05 04:49:56;;;;;;;4.97;3.60;;;;;;;;;;5091259;28;20464;-75
2022/10/05 04:52:25;;;;;;;5.13;4.70;;;;;;;;;;5091850;28;20443;-74
2022/10/05 04:54:56;;;;;;;6.27;4.20;;;;;;;;;;5090966;28;20448;-74
2022/10/05 04:57:25;;;;;;;6.73;4.77;;;;;;;;;;5092003;28;20483;-74
2022/10/05 05:00:01;;;;;;;6.20;4.97;;;;;;;;;;5090495;28;20515;-73
2022/10/05 05:02:36;;;;;;;6.37;4.63;;;;;;;;;;5084150;28;20474;-75
2022/10/05 05:05:18;;;;;;;11.10;4.70;;;;;;;;;;5091232;28;20432;-75
2022/10/05 05:07:50;;;;;;;6.07;4.30;;;;;;;;;;5091627;28;20452;-75
2022/10/05 05:10:29;;;;;;;6.23;4.87;;;;;;;;;;5091517;28;20452;-76
2022/10/05 05:13:03;;;;;;;5.77;4.77;;;;;;;;;;5092434;28;20477;-75
2022/10/05 05:15:39;;;;;;;8.53;5.23;;;;;;;;;;5092575;28;20440;-76
2022/10/05 05:18:29;;;;;;;5.97;4.30;;;;;;;;;;5078600;28;20472;-77
2022/10/05 05:21:01;;;;;;;5.50;4.37;;;;;;;;;;5079758;28;20460;-75
2022/10/05 05:23:32;;;;;;;7.40;4.50;;;;;;;;;;5091347;28;20439;-76
2022/10/05 05:26:04;;;;;;;7.23;4.70;;;;;;;;;;5090504;28;20447;-75
2022/10/05 05:28:37;;;;;;;9.70;5.43;;;;;;;;;;5100403;28;20443;-76
2022/10/05 05:31:10;;;;;;;5.20;4.27;;;;;;;;;;5108771;28;20440;-76
2022/10/05 05:33:41;;;;;;;5.73;5.03;;;;;;;;;;5100079;28;20464;-77
2022/10/05 05:36:19;;;;;;;8.00;4.93;;;;;;;;;;5100444;28;20606;-76
2022/10/05 05:38:51;;;;;;;5.90;4.47;;;;;;;;;;5108161;28;20479;-76
2022/10/05 05:41:23;;;;;;;6.93;4.23;;;;;;;;;;5105224;28;20551;-77
2022/10/05 05:43:56;;;;;;;6.90;4.60;;;;;;;;;;5096826;28;20441;-75
2022/10/05 05:46:26;;;;;;;7.63;4.40;;;;;;;;;;5095657;28;20456;-75
2022/10/05 05:48:53;;;;;;;9.17;4.20;;;;;;;;;;5094902;28;20482;-74
2022/10/05 05:51:24;;;;;;;5.97;4.57;;;;;;;;;;5094601;28;20939;-75
2022/10/05 05:53:55;;;;;;;7.00;4.67;;;;;;;;;;5095555;28;20443;-74
2022/10/05 05:56:30;;;;;;;6.23;4.40;;;13.40;99.90;;;;;;5095556;28;20474;-76
2022/10/05 05:59:03;;;;;;;9.43;4.93;;;10.80;99.90;;;;;;5094699;28;20820;-75
2022/10/05 06:01:35;;;;;;;7.33;4.70;;;10.60;99.90;;;;;;5095003;28;20446;-76
2022/10/05 06:04:09;;;;;;;5.70;3.53;;;10.60;99.90;;;;;;5094329;28;20440;-76
2022/10/05 06:06:41;;;;;;;4.90;3.63;;;10.50;99.90;;;;;;5095113;28;20444;-76
2022/10/05 06:09:19;;;;;;;5.27;4.40;;;10.40;99.90;;;;;;5093706;28;20439;-75
2022/10/05 06:11:51;;;;;;;7.27;4.60;;;10.10;99.90;;;;;;5094933;28;20480;-75
2022/10/05 06:14:25;;;;;;;6.17;4.43;;;10.10;99.90;;;;;;5094927;28;20457;-75
2022/10/05 06:16:58;;;;;;;5.97;3.90;;;10.20;99.90;;;;;;5094343;28;20453;-75
2022/10/05 06:19:27;;;;;;;7.83;5.23;;;10.30;99.90;;;;;;5094375;28;20816;-76
2022/10/05 06:22:01;;;;;;;7.43;5.13;;;10.50;99.90;;;;;;5093767;28;20456;-74
2022/10/05 06:24:35;;;;;;;5.17;4.57;;;10.50;99.90;;;;;;5094492;28;20749;-76
2022/10/05 06:27:25;;;;;;;6.20;4.30;;;10.50;99.90;;;;;;5093639;28;20809;-76
2022/10/05 06:30:12;;;;;;;7.30;4.03;;;10.40;99.90;;;;;;5093869;28;20452;-75
2022/10/05 06:33:01;;;;;;;5.80;4.90;;;10.20;99.90;;;;;;5093944;28;20488;-76
2022/10/05 06:35:45;;;;;;;7.20;5.47;;;10.30;99.90;;;;;;5094062;28;20438;-76
2022/10/05 06:38:28;;;;;;;7.40;4.90;;;10.50;99.90;;;;;;5093384;28;20469;-76
2022/10/05 06:41:05;;;;;;;6.20;4.03;;;10.60;99.90;;;;;;5092584;28;20799;-74
2022/10/05 06:43:47;;;;;;;6.13;4.30;;;10.60;99.90;;;;;;5093501;28;20439;-76
2022/10/05 06:46:21;;;;;;;6.17;4.30;;;10.80;99.90;;;;;;5093167;28;20452;-76
2022/10/05 06:49:08;;;;;;;6.77;4.00;;;10.80;99.90;;;;;;5080671;28;20505;-76
2022/10/05 06:51:43;;;;;;;7.27;4.50;;;11.00;99.90;;;;;;5094357;28;20805;-76
2022/10/05 06:54:25;;;;;;;7.20;5.70;;;11.00;99.90;;;;;;5093631;28;20460;-75
2022/10/05 06:56:59;;;;;;;7.57;4.70;;;11.10;99.90;;;;;;5093475;28;20471;-74
2022/10/05 06:59:35;;;;;;;22.63;5.73;;;11.20;99.90;;;;;;5093364;28;20484;-75
2022/10/05 07:02:08;;;;;;;6.73;4.87;;;11.20;99.90;;;;;;5092965;28;20446;-75
2022/10/05 07:04:49;;;;;;;6.87;5.20;;;11.20;99.90;;;;;;5093621;28;21052;-75
2022/10/05 07:07:23;;;;;;;9.37;5.97;;;11.30;99.90;;;;;;5093409;28;20444;-75
2022/10/05 07:10:03;;;;;;;6.80;4.90;;;11.40;99.90;;;;;;5093460;28;20448;-75
2022/10/05 07:12:53;;;;;;;8.40;5.40;;;11.50;99.90;;;;;;5093298;28;20876;-76
2022/10/05 07:15:29;;;;;;;5.90;5.27;;;;;;;;;;5093987;28;20447;-75
2022/10/05 07:18:01;;;;;;;6.83;4.90;;;;;;;;;;5093162;28;20498;-75
2022/10/05 07:20:30;;;;;;;9.30;5.63;;;;;;;;;;5093363;28;20516;-75
2022/10/05 07:23:04;;;;;;;10.20;5.90;;;;;;;;;;5092070;28;20452;-75
2022/10/05 07:25:36;;;;;;;8.33;5.20;;;;;;;;;;5093267;28;20462;-76
2022/10/05 07:28:06;;;;;;;7.43;5.30;;;;;;;;;;5092250;28;20932;-75
2022/10/05 07:30:36;;;;;;;9.00;5.30;;;;;;;;;;5092330;28;20947;-76
2022/10/05 07:33:08;;;;;;;8.13;4.57;;;;;;;;;;5092149;28;20445;-75
2022/10/05 07:38:30;;;;;;;8.80;4.97;;;;;;;;;;5092604;28;20467;-75
2022/10/05 07:41:02;;;;;;;7.67;5.37;;;;;;;;;;5091737;28;20471;-75
2022/10/05 07:43:33;;;;;;;6.43;5.10;;;;;;;;;;5092933;28;20495;-76
2022/10/05 07:46:05;;;;;;;6.00;4.80;;;;;;;;;;5091912;28;20457;-75
2022/10/05 07:48:39;;;;;;;10.03;5.50;;;;;;;;;;5092755;28;20479;-75
2022/10/05 07:51:09;;;;;;;6.40;5.03;;;;;;;;;;5091227;28;20452;-76
2022/10/05 07:53:38;;;;;;;10.43;5.93;;;;;;;;;;5092455;28;20795;-75
2022/10/05 07:56:09;;;;;;;5.23;4.60;;;;;;;;;;5092227;28;20456;-75
2022/10/05 07:58:39;;;;;;;7.40;5.50;;;;;;;;;;5092476;28;20913;-75
2022/10/05 08:01:08;;;;;;;6.07;4.67;;;;;;;;;;5091677;28;20532;-75
2022/10/05 08:03:41;;;;;;;8.87;5.20;;;;;;;;;;5092749;28;20453;-75
2022/10/05 08:06:12;;;;;;;5.77;4.93;;;;;;;;;;5092137;28;20501;-75
2022/10/05 08:08:43;;;;;;;5.70;4.60;;;;;;;;;;5092734;28;20460;-75
2022/10/05 08:11:14;;;;;;;5.83;5.23;;;;;;;;;;5091427;28;20480;-76
2022/10/05 08:13:46;;;;;;;6.13;5.20;;;;;;;;;;5092220;28;20999;-75
2022/10/05 08:16:13;;;;;;;6.33;5.10;;;;;;;;;;5091567;28;20449;-75
2022/10/05 08:18:47;;;;;;;6.03;4.67;;;;;;;;;;5092555;28;20831;-75
2022/10/05 08:21:15;;;;;;;6.40;4.37;;;;;;;;;;5078175;28;20437;-76
2022/10/05 08:23:45;;;;;;;8.00;6.27;;;;;;;;;;5091379;28;20447;-75
2022/10/05 08:26:17;;;;;;;10.60;5.80;;;;;;;;;;5091338;28;20445;-76
2022/10/05 08:28:50;;;;;;;7.03;4.53;;;;;;;;;;5091284;28;20455;-75
2022/10/05 08:31:19;;;;;;;8.33;5.20;;;;;;;;;;5091303;28;20444;-75
2022/10/05 08:33:52;;;;;;;6.70;4.80;;;;;;;;;;5091372;28;20532;-75
2022/10/05 08:36:24;;;;;;;7.30;5.10;;;;;;;;;;5091327;28;20444;-75
2022/10/05 08:38:54;;;;;;;5.63;4.43;;;;;;;;;;5091049;28;20479;-75
2022/10/05 08:41:43;;;;;;;10.33;5.07;;;;;;;;;;5091404;28;20860;-75
2022/10/05 08:44:32;;;;;;;5.73;4.73;;;;;;;;;;5090940;28;20438;-76
2022/10/05 08:47:08;;;;;;;5.60;4.63;;;;;;;;;;5090403;28;20931;-75
2022/10/05 08:49:57;;;;;;;5.43;4.60;;;;;;;;;;5090877;28;20448;-75
2022/10/05 08:52:27;;;;;;;7.00;4.33;;;;;;;;;;5081694;28;20441;-75
2022/10/05 08:55:16;;;;;;;6.63;5.13;;;;;;;;;;5091472;28;20449;-75
2022/10/05 08:57:49;;;;;;;17.03;12.30;;;;;;;;;;5091903;28;20448;-75
2022/10/05 09:00:19;;;;;;;9.40;7.37;;;;;;;;;;5091531;28;20448;-75
2022/10/05 09:03:02;;;;;;;10.63;5.60;;;;;;;;;;5091489;28;20456;-75
2022/10/05 09:05:43;;;;;;;8.57;5.20;;;;;;;;;;5091833;28;20495;-75
2022/10/05 09:08:19;;;;;;;5.47;4.50;;;;;;;;;;5091185;28;20445;-76
2022/10/05 09:10:58;;;;;;;6.50;5.20;;;;;;;;;;5090943;28;20487;-76
2022/10/05 09:13:34;;;;;;;6.07;4.40;;;;;;;;;;5091799;28;20464;-76
2022/10/05 09:16:12;;;;;;;8.03;4.60;;;;;;;;;;5091182;28;20448;-76
2022/10/05 09:18:54;;;;;;;7.90;5.37;;;;;;;;;;5091634;28;20476;-76
2022/10/05 09:21:30;;;;;;;8.60;5.30;;;;;;;;;;5089841;28;20502;-76
2022/10/05 09:24:05;;;;;;;5.40;4.70;;;;;;;;;;5090553;28;20799;-76
2022/10/05 09:26:45;;;;;;;7.40;5.03;;;;;;;;;;5091687;28;20478;-77
2022/10/05 09:29:28;;;;;;;8.60;4.80;;;;;;;;;;5090150;28;20444;-76
2022/10/05 09:32:07;;;;;;;6.80;4.73;;;;;;;;;;5091366;28;20993;-74
2022/10/05 09:34:44;;;;;;;7.80;4.80;;;;;;;;;;5102414;28;20440;-78
2022/10/05 09:37:18;;;;;;;7.20;4.50;;;;;;;;;;5103861;28;20534;-76
2022/10/05 09:40:22;;;;;;;7.27;4.73;;;11.60;99.90;;;;;;5094582;28;20479;-77
2022/10/05 09:43:15;;;;;;;6.00;4.00;;;16.10;99.90;;;;;;5099065;28;20907;-77
2022/10/05 09:46:08;;;;;;;7.30;5.70;;;16.40;1.00;;;;;;5100566;28;20440;-77
2022/10/05 09:48:57;;;;;;;8.50;4.80;;;16.40;90.60;;;;;;5098276;28;20444;-76
2022/10/05 09:52:12;;;;;;;7.00;5.40;;;16.30;99.90;;;;;;5091538;28;20452;-76
2022/10/05 09:55:16;;;;;;;7.30;3.80;;;16.40;99.90;;;;;;5075755;28;20456;-77
2022/10/05 09:58:19;;;;;;;7.23;4.30;;;16.60;89.00;;;;;;5091606;28;20432;-76
2022/10/05 10:01:06;;;;;;;8.20;4.80;;;16.70;1.00;;;;;;5091128;28;20447;-75
2022/10/05 10:04:19;;;;;;;5.47;4.90;;;16.90;1.00;;;;;;5078691;28;20448;-76
2022/10/05 10:07:12;;;;;;;5.47;4.13;;;17.10;99.90;;;;;;5091158;28;20472;-75
2022/10/05 10:09:53;;;;;;;5.47;4.97;;;17.20;1.00;;;;;;5090802;28;20453;-76
2022/10/05 10:12:51;;;;;;;9.13;4.67;;;17.30;99.90;;;;;;5090767;28;20486;-75
2022/10/05 10:15:48;;;;;;;6.60;4.10;;;17.40;99.90;;;;;;5092222;28;20456;-76
2022/10/05 10:18:44;;;;;;;8.17;4.60;;;17.60;1.00;;;;;;5094226;28;20444;-76
2022/10/05 10:21:53;;;;;;;4.50;3.70;;;17.70;1.00;;;;;;5094062;28;20857;-75
2022/10/05 10:24:42;;;;;;;5.50;3.57;;;18.00;58.70;;;;;;5047980;28;20465;-76
2022/10/05 10:27:30;;;;;;;5.93;4.40;;;18.10;1.00;;;;;;5093229;28;20445;-76
2022/10/05 10:30:26;;;;;;;4.10;3.17;;;18.40;1.00;;;;;;5093182;28;20452;-76
2022/10/05 10:33:17;;;;;;;4.53;3.57;;;18.60;99.90;;;;;;5091425;28;20555;-74
2022/10/05 10:35:53;;;;;;;6.90;4.37;;;18.90;1.00;;;;;;5093847;28;20447;-76
2022/10/05 10:38:40;;;;;;;3.80;2.90;;;19.20;1.00;;;;;;5093530;28;20447;-75
2022/10/05 10:41:39;;;;;;;1.40;1.20;;;19.50;1.00;;;;;;5093352;28;20460;-76
2022/10/05 10:44:37;;;;;;;1.07;0.97;;;20.10;99.90;;;;;;5093483;28;20437;-76
2022/10/05 10:47:35;;;;;;;1.10;1.00;;;20.30;99.90;;;;;;5093349;28;20456;-75
2022/10/05 10:50:32;;;;;;;1.40;1.30;;;20.60;99.90;;;;;;5082330;28;20784;-76
2022/10/05 10:53:15;;;;;;;0.93;0.83;;;20.80;99.90;;;;;;5093629;28;20510;-76
2022/10/05 10:55:52;;;;;;;1.53;1.27;;;21.00;99.90;;;;;;5094500;28;20455;-75
2022/10/05 10:58:55;;;;;;;1.63;1.20;;;21.10;99.90;;;;;;5094448;28;20799;-76
2022/10/05 11:01:32;;;;;;;1.83;1.03;;;21.00;99.90;;;;;;5094175;28;20519;-75
2022/10/05 11:04:21;;;;;;;1.73;1.27;;;21.30;99.90;;;;;;5093692;28;20448;-75
2022/10/05 11:07:21;;;;;;;3.00;1.50;;;21.30;99.90;;;;;;5093878;28;20455;-75
2022/10/05 11:10:00;;;;;;;1.50;1.40;;;21.30;99.90;;;;;;5093232;28;20924;-75
2022/10/05 11:13:10;;;;;;;1.37;1.10;;;21.30;99.90;;;;;;5093758;28;21053;-75
2022/10/05 11:15:59;;;;;;;1.53;1.40;;;21.30;99.90;;;;;;5093439;28;20447;-76
2022/10/05 11:18:40;;;;;;;1.23;0.90;;;21.50;99.90;;;;;;5093817;28;20839;-75
2022/10/05 11:21:29;;;;;;;1.63;1.40;;;21.60;99.90;;;;;;5093098;28;20800;-76
2022/10/05 11:24:28;;;;;;;1.10;0.93;;;21.80;99.90;;;;;;5092456;28;20486;-74
2022/10/05 11:27:18;;;;;;;0.93;0.87;;;22.10;99.90;;;;;;5092609;28;20440;-73
2022/10/05 11:30:09;;;;;;;1.97;1.33;;;22.20;99.90;;;;;;5092785;28;20445;-76
2022/10/05 11:33:11;;;;;;;1.60;1.30;;;22.20;99.90;;;;;;5093353;28;20441;-75
2022/10/05 11:35:58;;;;;;;1.33;1.23;;;22.30;99.90;;;;;;5091127;28;20457;-76
2022/10/05 11:39:04;;;;;;;1.70;1.33;;;22.40;99.90;;;;;;5092621;28;20445;-76
2022/10/05 11:41:59;;;;;;;1.63;1.40;;;22.50;99.90;;;;;;5090976;28;20469;-75
2022/10/05 11:45:11;;;;;;;1.83;1.30;;;22.30;99.90;;;;;;5092621;28;20451;-76
2022/10/05 11:47:49;;;;;;;1.60;1.50;;;22.60;99.90;;;;;;5092924;28;20452;-76
2022/10/05 11:50:22;;;;;;;1.70;1.20;;;22.90;99.90;;;;;;5091481;28;20452;-76
2022/10/05 11:52:54;;;;;;;2.17;1.67;;;23.00;99.90;;;;;;5093400;28;20796;-76
2022/10/05 11:55:26;;;;;;;1.63;1.53;;;23.00;99.90;;;;;;5093452;28;20452;-76
2022/10/05 11:57:56;;;;;;;2.00;1.57;;;22.90;99.90;;;;;;5092530;28;20795;-75
2022/10/05 12:00:30;;;;;;;1.97;1.40;;;22.80;99.90;;;;;;5092142;28;20570;-76
2022/10/05 12:03:19;;;;;;;2.20;1.37;;;23.10;99.90;;;;;;5092544;28;20451;-76
2022/10/05 12:06:02;;;;;;;2.00;1.80;;;22.90;99.90;;;;;;5093412;28;20445;-76
2022/10/05 12:08:39;;;;;;;5.50;2.50;;;23.10;99.90;;;;;;5092178;28;20916;-76
2022/10/05 12:11:24;;;;;;;1.67;1.57;;;23.30;99.90;;;;;;5092069;28;20480;-77
2022/10/05 12:13:56;;;;;;;1.40;1.10;;;23.30;99.90;;;;;;5092272;28;20437;-74
2022/10/05 12:16:34;;;;;;;1.43;1.33;;;23.50;99.90;;;;;;5092736;28;20793;-76
2022/10/05 12:19:09;;;;;;;1.50;1.40;;;23.20;99.90;;;;;;5090808;28;21047;-76
2022/10/05 12:21:41;;;;;;;1.53;1.37;;;23.30;99.90;;;;;;5092204;28;20949;-76
2022/10/05 12:24:15;;;;;;;1.23;1.10;;;23.30;99.90;;;;;;5091254;28;20449;-76
2022/10/05 12:26:45;;;;;;;1.77;1.30;;;;;;;;;;5092258;28;20843;-76
2022/10/05 12:29:14;;;;;;;1.83;1.40;;;;;;;;;;5090542;28;20457;-75
2022/10/05 12:31:51;;;;;;;2.60;1.47;;;23.70;99.90;;;;;;5092016;28;20448;-76
2022/10/05 12:34:28;;;;;;;1.90;1.63;;;24.00;99.90;;;;;;5091688;28;20451;-75
2022/10/05 12:36:59;;;;;;;3.63;3.40;;;24.20;99.90;;;;;;5091424;28;20456;-74
2022/10/05 12:39:38;;;;;;;1.40;1.30;;;24.10;99.90;;;;;;5090825;28;20473;-76
2022/10/05 12:42:17;;;;;;;2.00;1.80;;;24.00;99.90;;;;;;5090664;28;20819;-76
2022/10/05 12:45:09;;;;;;;3.20;1.50;;;24.30;99.90;;;;;;5091860;28;20445;-76
2022/10/05 12:47:50;;;;;;;2.10;1.70;;;24.50;99.90;;;;;;5081477;28;20448;-76
2022/10/05 12:50:21;;;;;;;1.63;1.43;;;24.50;99.90;;;;;;5090773;28;20455;-76
2022/10/05 12:53:01;;;;;;;1.73;1.43;;;24.40;99.90;;;;;;5092451;28;20437;-76
2022/10/05 12:55:34;;;;;;;1.40;1.17;;;24.20;99.90;;;;;;5091912;28;20912;-76
2022/10/05 12:58:12;;;;;;;1.47;0.93;;;24.50;99.90;;;;;;5091513;28;20452;-76
2022/10/05 13:00:47;;;;;;;2.03;1.00;;;24.40;99.90;;;;;;5091594;28;20559;-76
2022/10/05 13:03:22;;;;;;;1.30;1.20;;;24.60;99.90;;;;;;5091295;28;20445;-76
2022/10/05 13:05:52;;;;;;;1.20;1.00;;;;;;;;;;5091819;28;20436;-76
2022/10/05 13:08:23;;;;;;;0.97;0.97;;;;;;;;;;5078905;28;20441;-76
2022/10/05 13:10:54;;;;;;;1.00;0.90;;;;;;;;;;5091339;28;20452;-77
2022/10/05 13:13:33;;;;;;;1.40;1.17;;;;;;;;;;5091694;28;20942;-76
2022/10/05 13:16:05;;;;;;;1.77;0.80;;;;;;;;;;5091124;28;20443;-76
2022/10/05 13:18:37;;;;;;;1.00;0.90;;;;;;;;;;5091736;28;20444;-77
2022/10/05 13:21:06;;;;;;;1.00;0.73;;;;;;;;;;5090628;28;20475;-76
2022/10/05 13:23:37;;;;;;;1.13;0.80;;;;;;;;;;5091324;28;20440;-76
2022/10/05 13:26:08;;;;;;;0.80;0.80;;;;;;;;;;5090490;28;20448;-76
2022/10/05 13:28:38;;;;;;;1.57;0.90;;;;;;;;;;5090904;28;20490;-76
2022/10/05 13:31:07;;;;;;;0.93;0.83;;;;;;;;;;5090584;28;20468;-76
2022/10/05 13:33:58;;;;;;;1.07;0.97;;;;;;;;;;5090953;28;20445;-76
2022/10/05 13:36:30;;;;;;;0.87;0.80;;;;;;;;;;5092747;28;20445;-76
2022/10/05 13:38:59;;;;;;;1.13;0.80;;;;;;;;;;5091528;28;20439;-75
2022/10/05 13:41:33;;;;;;;1.17;0.80;;;;;;;;;;5102924;28;20500;-76
2022/10/05 13:44:05;;;;;;;2.17;0.60;;;;;;;;;;5107682;28;20540;-76
2022/10/05 13:46:38;;;;;;;1.90;0.97;;;;;;;;;;5096608;28;20928;-76
2022/10/05 13:49:17;;;;;;;1.50;1.10;;;;;;;;;;5099757;28;20443;-76
2022/10/05 13:51:46;;;;;;;2.00;0.90;;;;;;;;;;5109194;28;20440;-75
2022/10/05 13:54:15;;;;;;;1.57;1.10;;;;;;;;;;5111395;28;20448;-75
2022/10/05 13:56:43;;;;;;;1.17;0.80;;;;;;;;;;5103736;28;20529;-75
2022/10/05 13:59:16;;;;;;;1.23;0.93;;;;;;;;;;5097028;28;20453;-75
2022/10/05 14:01:48;;;;;;;2.33;1.07;;;;;;;;;;5098897;28;20464;-77
2022/10/05 14:04:19;;;;;;;1.10;0.80;;;;;;;;;;5112399;28;20452;-74
2022/10/05 14:06:46;;;;;;;1.10;1.00;;;;;;;;;;5114276;28;20441;-75
2022/10/05 14:09:15;;;;;;;3.40;0.97;;;;;;;;;;5110026;28;20475;-76
2022/10/05 14:11:48;;;;;;;2.63;1.00;;;;;;;;;;5110389;28;20501;-76
2022/10/05 14:14:17;;;;;;;1.13;0.90;;;;;;;;;;5105429;28;20437;-77
2022/10/05 14:16:48;;;;;;;1.00;0.87;;;;;;;;;;5101088;28;20441;-77
2022/10/05 14:19:25;;;;;;;0.93;0.83;;;;;;;;;;5095365;28;20441;-77
2022/10/05 14:21:55;;;;;;;1.70;1.10;;;;;;;;;;5095138;28;20476;-75
2022/10/05 14:24:28;;;;;;;1.00;0.83;;;;;;;;;;5094520;28;20460;-76
2022/10/05 14:26:56;;;;;;;1.10;0.87;;;;;;;;;;5094352;28;20448;-74
2022/10/05 14:29:24;;;;;;;2.03;1.00;;;;;;;;;;5093929;28;20451;-75
2022/10/05 14:31:53;;;;;;;1.20;0.70;;;;;;;;;;5094556;28;20447;-75
2022/10/05 14:34:30;;;;;;;1.20;0.90;;;;;;;;;;5081801;28;20445;-75
2022/10/05 14:36:58;;;;;;;1.53;0.80;;;;;;;;;;5093221;28;20451;-76
2022/10/05 14:39:26;;;;;;;0.77;0.70;;;;;;;;;;5093838;28;20459;-75
2022/10/05 14:41:53;;;;;;;1.03;0.80;;;;;;;;;;5093854;28;20495;-73
2022/10/05 14:44:27;;;;;;;1.20;0.93;;;;;;;;;;5094461;28;20504;-75
2022/10/05 14:46:57;;;;;;;1.30;0.83;;;;;;;;;;5093807;28;20448;-73
2022/10/05 14:49:25;;;;;;;1.67;1.00;;;;;;;;;;5093862;28;20449;-75
2022/10/05 14:51:54;;;;;;;1.03;0.83;;;;;;;;;;5093789;28;20461;-75
2022/10/05 14:54:30;;;;;;;1.00;0.70;;;;;;;;;;5094581;28;20615;-76
2022/10/05 14:57:08;;;;;;;4.53;0.83;;;;;;;;;;5080407;28;20447;-75